A- A+ FrançaisEnglishEspañol中国

Services sur Internet Soldes sur Internet Des idées de cadeaux Météo Météo aéro

La météo à : Autours de vous Tarbes-Lourdes-PyrénéesVienne-RenentinParis-Charles-De-Gaulle Biscarrosse-Parentis

manche à air

La météo aéronautique pour les pilotes, la préparation du vol avec les METAR (METeorological Aerodrome Report, message d'observation des conditions météorologiques pour l'aviation) et Les TAF (Terminal Aerodrome Forecast : message de prévision à court terme des conditions météorologiques pour l'aviation). Et les autres ressources comme les VAC (Visual Approch Chart) et les NOTAM (Notice To Airman) pour préprer les vols.

Aéroport Tunis Carthage (Tunisie) / OACI DTTA/ IATA TUN

L'altitude de l'aéroport Tunis Carthage est de 7 m = 23 ft. Il est situé à proximité de Tunis (Tunisie). La météo générale à 5 jours est disponible pour Ariana situé à 3.2 km.

METAR de l'aéroport Tunis Carthage - DTTA

DTTA 291630Z 28009KT 9999 FEW033 19/09 Q1019

Décodage du METAR de l'aéroport Tunis Carthage (TN)

METAR émis par DTTA le vendredi 29 novembre 2019 à 16:30 heure TU. Attention ce METAR est obsolète car il a été émis il y a 4 heure et 57 minutes.

La visibilité est de supérieure à 10 km = supérieure à 6.2 sm.

La température est de 19°C = 66 °F et le point rosée est de 9°C = 48 °F . Ce qui correspond à 52% d'humidité relative.

Le QNH est de 1019 hPa = 30.09 inHg

Vent de 9 kt = 17 km/h, orienté à 280°.

Nuages : Quelques nuages à 3300 ft = 1010 mètres.

TAF de l'aéroport Tunis Carthage - DTTA

DTTA 291100Z 2912/3012 19005KT 9999 FEW033 BECMG 2916/2918 28015KT

DTTA 291100Z 2912/3012 19005KT 9999 quelques nuages à 033 devenant 2916/2918 28015KT

Aéroport à proximité de Tunis Carthage

Météo générale à 5 jours à Ariana (3.2 km)Aéroport Bordj El Amri (29 km)Aéroport Bizerte Sidi Ahmed (58 km)Aéroport Tabarka (121 km)Aéroport Monastir Habib Bourgiba (130 km)Aéroport Pantelleria (155 km)Aéroport Annaba Mellah (215 km)

VAC de l'aéroport Tunis Carthage - DTTA

La carte d'approche à vue (VAC Visual Approah Chart) est fournie sans aucune garantie de son actualité. Le pilote est le seul responsable de la vérification de sa validité avant de l'utiliser opérationnellement pour préparer un vol ou l'utiliser lors de sa navigation.

VAC de DTTA

Vue aérienne de l'aéroport Tunis Carthage

NOTAM de l'aéroport Tunis Carthage

Les NOTAM sont fournis sans aucune garantie de leur actualité. Le pilote est le seul responsable de la vérification de sa validité avant de l'utiliser opérationnellement pour préparer un vol ou l'utiliser lors de sa navigation.

Pas de NOTAM

Sources des données